sensor_id;sensor_type;location;lat;lon;timestamp;P1;durP1;ratioP1;P2;durP2;ratioP2
6207;SDS011;3137;51.550;7.060;2024-01-10T00:02:19;11.00;;;9.77;;
6207;SDS011;3137;51.550;7.060;2024-01-10T00:04:46;15.83;;;9.50;;
6207;SDS011;3137;51.550;7.060;2024-01-10T00:07:13;11.20;;;9.70;;
6207;SDS011;3137;51.550;7.060;2024-01-10T00:09:39;14.97;;;10.87;;
6207;SDS011;3137;51.550;7.060;2024-01-10T00:12:05;11.30;;;9.90;;
6207;SDS011;3137;51.550;7.060;2024-01-10T00:14:32;16.10;;;9.53;;
6207;SDS011;3137;51.550;7.060;2024-01-10T00:16:58;11.97;;;10.37;;
6207;SDS011;3137;51.550;7.060;2024-01-10T00:19:25;13.77;;;9.20;;
6207;SDS011;3137;51.550;7.060;2024-01-10T00:21:51;15.13;;;10.77;;
6207;SDS011;3137;51.550;7.060;2024-01-10T00:24:19;14.90;;;9.37;;
6207;SDS011;3137;51.550;7.060;2024-01-10T00:26:45;14.83;;;10.17;;
6207;SDS011;3137;51.550;7.060;2024-01-10T00:29:12;12.60;;;10.37;;
6207;SDS011;3137;51.550;7.060;2024-01-10T00:31:38;19.07;;;11.10;;
6207;SDS011;3137;51.550;7.060;2024-01-10T00:34:05;16.43;;;10.77;;
6207;SDS011;3137;51.550;7.060;2024-01-10T00:36:32;16.10;;;10.63;;
6207;SDS011;3137;51.550;7.060;2024-01-10T00:38:58;19.20;;;10.67;;
6207;SDS011;3137;51.550;7.060;2024-01-10T00:41:25;13.43;;;11.20;;
6207;SDS011;3137;51.550;7.060;2024-01-10T00:43:51;13.90;;;10.47;;
6207;SDS011;3137;51.550;7.060;2024-01-10T00:46:17;16.80;;;10.83;;
6207;SDS011;3137;51.550;7.060;2024-01-10T00:48:44;13.03;;;10.87;;
6207;SDS011;3137;51.550;7.060;2024-01-10T00:51:10;21.53;;;11.70;;
6207;SDS011;3137;51.550;7.060;2024-01-10T00:53:37;18.63;;;11.43;;
6207;SDS011;3137;51.550;7.060;2024-01-10T00:56:08;22.87;;;12.23;;
6207;SDS011;3137;51.550;7.060;2024-01-10T00:58:35;17.57;;;11.23;;
6207;SDS011;3137;51.550;7.060;2024-01-10T01:01:02;13.60;;;10.67;;
6207;SDS011;3137;51.550;7.060;2024-01-10T01:03:28;12.67;;;11.07;;
6207;SDS011;3137;51.550;7.060;2024-01-10T01:05:55;13.13;;;10.97;;
6207;SDS011;3137;51.550;7.060;2024-01-10T01:08:21;13.23;;;10.17;;
6207;SDS011;3137;51.550;7.060;2024-01-10T01:10:48;20.90;;;12.03;;
6207;SDS011;3137;51.550;7.060;2024-01-10T01:13:14;19.23;;;11.57;;
6207;SDS011;3137;51.550;7.060;2024-01-10T01:15:41;18.30;;;11.57;;
6207;SDS011;3137;51.550;7.060;2024-01-10T01:18:07;16.27;;;10.90;;
6207;SDS011;3137;51.550;7.060;2024-01-10T01:20:36;12.13;;;10.10;;
6207;SDS011;3137;51.550;7.060;2024-01-10T01:23:02;21.80;;;11.67;;
6207;SDS011;3137;51.550;7.060;2024-01-10T01:25:29;16.67;;;11.17;;
6207;SDS011;3137;51.550;7.060;2024-01-10T01:27:55;19.40;;;12.13;;
6207;SDS011;3137;51.550;7.060;2024-01-10T01:30:22;19.47;;;11.23;;
6207;SDS011;3137;51.550;7.060;2024-01-10T01:32:48;18.50;;;11.57;;
6207;SDS011;3137;51.550;7.060;2024-01-10T01:35:15;15.20;;;11.27;;
6207;SDS011;3137;51.550;7.060;2024-01-10T01:37:48;18.00;;;11.50;;
6207;SDS011;3137;51.550;7.060;2024-01-10T01:40:15;24.37;;;12.27;;
6207;SDS011;3137;51.550;7.060;2024-01-10T01:42:43;14.33;;;11.43;;
6207;SDS011;3137;51.550;7.060;2024-01-10T01:45:11;20.27;;;11.83;;
6207;SDS011;3137;51.550;7.060;2024-01-10T01:47:38;21.53;;;12.63;;
6207;SDS011;3137;51.550;7.060;2024-01-10T01:50:05;21.17;;;12.67;;
6207;SDS011;3137;51.550;7.060;2024-01-10T01:52:33;19.03;;;12.03;;
6207;SDS011;3137;51.550;7.060;2024-01-10T01:55:01;16.50;;;11.97;;
6207;SDS011;3137;51.550;7.060;2024-01-10T01:57:28;20.60;;;12.00;;
6207;SDS011;3137;51.550;7.060;2024-01-10T01:59:54;23.03;;;11.57;;
6207;SDS011;3137;51.550;7.060;2024-01-10T02:02:21;24.30;;;12.00;;
6207;SDS011;3137;51.550;7.060;2024-01-10T02:04:48;18.23;;;11.97;;
6207;SDS011;3137;51.550;7.060;2024-01-10T02:07:14;14.13;;;10.57;;
6207;SDS011;3137;51.550;7.060;2024-01-10T02:09:41;14.57;;;10.70;;
6207;SDS011;3137;51.550;7.060;2024-01-10T02:12:07;18.70;;;11.83;;
6207;SDS011;3137;51.550;7.060;2024-01-10T02:14:33;17.23;;;11.53;;
6207;SDS011;3137;51.550;7.060;2024-01-10T02:17:00;16.50;;;11.87;;
6207;SDS011;3137;51.550;7.060;2024-01-10T02:19:27;18.10;;;11.13;;
6207;SDS011;3137;51.550;7.060;2024-01-10T02:21:55;14.73;;;11.10;;
6207;SDS011;3137;51.550;7.060;2024-01-10T02:24:22;21.27;;;11.37;;
6207;SDS011;3137;51.550;7.060;2024-01-10T02:26:48;14.20;;;11.03;;
6207;SDS011;3137;51.550;7.060;2024-01-10T02:29:16;20.40;;;11.73;;
6207;SDS011;3137;51.550;7.060;2024-01-10T02:31:42;20.60;;;11.60;;
6207;SDS011;3137;51.550;7.060;2024-01-10T02:34:09;17.67;;;10.80;;
6207;SDS011;3137;51.550;7.060;2024-01-10T02:36:35;13.03;;;11.10;;
6207;SDS011;3137;51.550;7.060;2024-01-10T02:39:02;18.40;;;11.30;;
6207;SDS011;3137;51.550;7.060;2024-01-10T02:41:29;16.27;;;11.03;;
6207;SDS011;3137;51.550;7.060;2024-01-10T02:43:55;18.13;;;12.63;;
6207;SDS011;3137;51.550;7.060;2024-01-10T02:46:25;14.40;;;10.57;;
6207;SDS011;3137;51.550;7.060;2024-01-10T02:48:54;16.13;;;11.40;;
6207;SDS011;3137;51.550;7.060;2024-01-10T02:51:21;24.97;;;12.07;;
6207;SDS011;3137;51.550;7.060;2024-01-10T02:53:48;13.80;;;10.53;;
6207;SDS011;3137;51.550;7.060;2024-01-10T02:56:15;19.27;;;11.20;;
6207;SDS011;3137;51.550;7.060;2024-01-10T02:58:41;19.37;;;11.40;;
6207;SDS011;3137;51.550;7.060;2024-01-10T03:01:08;16.40;;;10.70;;
6207;SDS011;3137;51.550;7.060;2024-01-10T03:03:35;12.57;;;10.67;;
6207;SDS011;3137;51.550;7.060;2024-01-10T03:06:02;19.50;;;11.67;;
6207;SDS011;3137;51.550;7.060;2024-01-10T03:08:28;20.43;;;11.13;;
6207;SDS011;3137;51.550;7.060;2024-01-10T03:10:55;16.97;;;11.10;;
6207;SDS011;3137;51.550;7.060;2024-01-10T03:13:21;19.43;;;9.93;;
6207;SDS011;3137;51.550;7.060;2024-01-10T03:15:48;20.40;;;11.53;;
6207;SDS011;3137;51.550;7.060;2024-01-10T03:18:14;20.47;;;12.43;;
6207;SDS011;3137;51.550;7.060;2024-01-10T03:20:41;19.43;;;11.27;;
6207;SDS011;3137;51.550;7.060;2024-01-10T03:23:07;18.53;;;11.33;;
6207;SDS011;3137;51.550;7.060;2024-01-10T03:25:34;19.90;;;12.00;;
6207;SDS011;3137;51.550;7.060;2024-01-10T03:28:00;18.73;;;12.40;;
6207;SDS011;3137;51.550;7.060;2024-01-10T03:30:26;24.60;;;13.23;;
6207;SDS011;3137;51.550;7.060;2024-01-10T03:32:53;23.60;;;11.43;;
6207;SDS011;3137;51.550;7.060;2024-01-10T03:35:20;23.23;;;13.70;;
6207;SDS011;3137;51.550;7.060;2024-01-10T03:37:46;14.70;;;11.43;;
6207;SDS011;3137;51.550;7.060;2024-01-10T03:40:13;17.27;;;11.60;;
6207;SDS011;3137;51.550;7.060;2024-01-10T03:42:39;21.40;;;12.23;;
6207;SDS011;3137;51.550;7.060;2024-01-10T03:45:05;18.47;;;12.67;;
6207;SDS011;3137;51.550;7.060;2024-01-10T03:47:32;15.37;;;11.23;;
6207;SDS011;3137;51.550;7.060;2024-01-10T03:49:58;20.93;;;13.73;;
6207;SDS011;3137;51.550;7.060;2024-01-10T03:52:25;20.17;;;12.53;;
6207;SDS011;3137;51.550;7.060;2024-01-10T03:54:51;23.87;;;12.23;;
6207;SDS011;3137;51.550;7.060;2024-01-10T03:57:18;16.47;;;11.30;;
6207;SDS011;3137;51.550;7.060;2024-01-10T03:59:44;19.50;;;11.43;;
6207;SDS011;3137;51.550;7.060;2024-01-10T04:02:11;21.17;;;12.47;;
6207;SDS011;3137;51.550;7.060;2024-01-10T04:04:37;21.17;;;12.23;;
6207;SDS011;3137;51.550;7.060;2024-01-10T04:07:05;19.67;;;12.00;;
6207;SDS011;3137;51.550;7.060;2024-01-10T04:09:32;26.10;;;12.17;;
6207;SDS011;3137;51.550;7.060;2024-01-10T04:11:58;32.20;;;13.03;;
6207;SDS011;3137;51.550;7.060;2024-01-10T04:14:25;22.80;;;12.23;;
6207;SDS011;3137;51.550;7.060;2024-01-10T04:16:52;18.27;;;12.10;;
6207;SDS011;3137;51.550;7.060;2024-01-10T04:19:19;20.83;;;12.83;;
6207;SDS011;3137;51.550;7.060;2024-01-10T04:21:46;18.10;;;12.43;;
6207;SDS011;3137;51.550;7.060;2024-01-10T04:24:13;19.23;;;13.00;;
6207;SDS011;3137;51.550;7.060;2024-01-10T04:26:39;23.90;;;13.80;;
6207;SDS011;3137;51.550;7.060;2024-01-10T04:29:06;19.67;;;12.87;;
6207;SDS011;3137;51.550;7.060;2024-01-10T04:31:32;24.17;;;13.10;;
6207;SDS011;3137;51.550;7.060;2024-01-10T04:33:59;20.30;;;13.07;;
6207;SDS011;3137;51.550;7.060;2024-01-10T04:36:25;16.03;;;11.37;;
6207;SDS011;3137;51.550;7.060;2024-01-10T04:38:51;22.30;;;13.03;;
6207;SDS011;3137;51.550;7.060;2024-01-10T04:41:18;20.07;;;12.33;;
6207;SDS011;3137;51.550;7.060;2024-01-10T04:43:45;20.90;;;12.53;;
6207;SDS011;3137;51.550;7.060;2024-01-10T04:46:11;18.57;;;12.37;;
6207;SDS011;3137;51.550;7.060;2024-01-10T04:48:38;20.17;;;11.97;;
6207;SDS011;3137;51.550;7.060;2024-01-10T04:51:04;22.07;;;12.07;;
6207;SDS011;3137;51.550;7.060;2024-01-10T04:53:31;17.43;;;12.50;;
6207;SDS011;3137;51.550;7.060;2024-01-10T04:55:57;29.83;;;13.03;;
6207;SDS011;3137;51.550;7.060;2024-01-10T04:58:24;23.80;;;12.80;;
6207;SDS011;3137;51.550;7.060;2024-01-10T05:00:50;18.73;;;12.57;;
6207;SDS011;3137;51.550;7.060;2024-01-10T05:03:16;17.00;;;12.37;;
6207;SDS011;3137;51.550;7.060;2024-01-10T05:05:43;27.87;;;12.53;;
6207;SDS011;3137;51.550;7.060;2024-01-10T05:08:10;20.77;;;12.40;;
6207;SDS011;3137;51.550;7.060;2024-01-10T05:10:36;19.73;;;13.53;;
6207;SDS011;3137;51.550;7.060;2024-01-10T05:13:03;24.00;;;12.30;;
6207;SDS011;3137;51.550;7.060;2024-01-10T05:15:29;22.27;;;12.53;;
6207;SDS011;3137;51.550;7.060;2024-01-10T05:17:56;14.97;;;11.50;;
6207;SDS011;3137;51.550;7.060;2024-01-10T05:20:22;21.47;;;13.30;;
6207;SDS011;3137;51.550;7.060;2024-01-10T05:22:49;21.77;;;13.67;;
6207;SDS011;3137;51.550;7.060;2024-01-10T05:25:15;21.83;;;13.07;;
6207;SDS011;3137;51.550;7.060;2024-01-10T05:27:44;25.57;;;12.13;;
6207;SDS011;3137;51.550;7.060;2024-01-10T05:30:11;22.33;;;12.40;;
6207;SDS011;3137;51.550;7.060;2024-01-10T05:32:38;43.63;;;19.27;;
6207;SDS011;3137;51.550;7.060;2024-01-10T05:35:05;23.10;;;13.30;;
6207;SDS011;3137;51.550;7.060;2024-01-10T05:37:32;22.33;;;13.73;;
6207;SDS011;3137;51.550;7.060;2024-01-10T05:39:59;19.77;;;12.57;;
6207;SDS011;3137;51.550;7.060;2024-01-10T05:42:25;19.67;;;12.13;;
6207;SDS011;3137;51.550;7.060;2024-01-10T05:44:52;21.77;;;12.77;;
6207;SDS011;3137;51.550;7.060;2024-01-10T05:47:19;24.67;;;12.73;;
6207;SDS011;3137;51.550;7.060;2024-01-10T05:49:45;20.00;;;12.57;;
6207;SDS011;3137;51.550;7.060;2024-01-10T05:52:12;22.10;;;12.70;;
6207;SDS011;3137;51.550;7.060;2024-01-10T05:54:38;28.70;;;12.77;;
6207;SDS011;3137;51.550;7.060;2024-01-10T05:57:05;23.20;;;13.60;;
6207;SDS011;3137;51.550;7.060;2024-01-10T05:59:31;22.53;;;12.60;;
6207;SDS011;3137;51.550;7.060;2024-01-10T06:01:58;22.07;;;12.80;;
6207;SDS011;3137;51.550;7.060;2024-01-10T06:04:25;22.03;;;13.60;;
6207;SDS011;3137;51.550;7.060;2024-01-10T06:06:51;26.73;;;13.33;;
6207;SDS011;3137;51.550;7.060;2024-01-10T06:09:18;24.97;;;14.00;;
6207;SDS011;3137;51.550;7.060;2024-01-10T06:11:48;22.80;;;13.43;;
6207;SDS011;3137;51.550;7.060;2024-01-10T06:14:14;19.27;;;12.93;;
6207;SDS011;3137;51.550;7.060;2024-01-10T06:16:41;32.17;;;14.40;;
6207;SDS011;3137;51.550;7.060;2024-01-10T06:19:07;21.37;;;13.37;;
6207;SDS011;3137;51.550;7.060;2024-01-10T06:21:34;35.60;;;14.53;;
6207;SDS011;3137;51.550;7.060;2024-01-10T06:24:01;25.73;;;14.23;;
6207;SDS011;3137;51.550;7.060;2024-01-10T06:26:27;29.40;;;14.07;;
6207;SDS011;3137;51.550;7.060;2024-01-10T06:28:54;26.67;;;14.63;;
6207;SDS011;3137;51.550;7.060;2024-01-10T06:31:21;22.30;;;14.17;;
6207;SDS011;3137;51.550;7.060;2024-01-10T06:33:47;29.53;;;14.90;;
6207;SDS011;3137;51.550;7.060;2024-01-10T06:36:14;24.03;;;14.27;;
6207;SDS011;3137;51.550;7.060;2024-01-10T06:38:40;21.17;;;12.67;;
6207;SDS011;3137;51.550;7.060;2024-01-10T06:41:10;26.27;;;14.03;;
6207;SDS011;3137;51.550;7.060;2024-01-10T06:43:40;21.97;;;13.33;;
6207;SDS011;3137;51.550;7.060;2024-01-10T06:46:09;32.07;;;14.80;;
6207;SDS011;3137;51.550;7.060;2024-01-10T06:48:37;22.83;;;14.00;;
6207;SDS011;3137;51.550;7.060;2024-01-10T06:51:14;30.63;;;15.57;;
6207;SDS011;3137;51.550;7.060;2024-01-10T06:53:41;28.63;;;14.13;;
6207;SDS011;3137;51.550;7.060;2024-01-10T06:56:07;32.93;;;15.27;;
6207;SDS011;3137;51.550;7.060;2024-01-10T06:58:36;35.97;;;14.80;;
6207;SDS011;3137;51.550;7.060;2024-01-10T07:01:02;32.33;;;14.47;;
6207;SDS011;3137;51.550;7.060;2024-01-10T07:03:31;33.50;;;15.17;;
6207;SDS011;3137;51.550;7.060;2024-01-10T07:05:58;33.03;;;15.97;;
6207;SDS011;3137;51.550;7.060;2024-01-10T07:08:25;26.70;;;14.93;;
6207;SDS011;3137;51.550;7.060;2024-01-10T07:10:52;27.97;;;15.40;;
6207;SDS011;3137;51.550;7.060;2024-01-10T07:13:21;28.33;;;16.13;;
6207;SDS011;3137;51.550;7.060;2024-01-10T07:15:48;27.73;;;15.90;;
6207;SDS011;3137;51.550;7.060;2024-01-10T07:18:17;28.73;;;15.37;;
6207;SDS011;3137;51.550;7.060;2024-01-10T07:20:43;31.53;;;15.97;;
6207;SDS011;3137;51.550;7.060;2024-01-10T07:23:09;25.77;;;14.77;;
6207;SDS011;3137;51.550;7.060;2024-01-10T07:25:36;31.83;;;15.90;;
6207;SDS011;3137;51.550;7.060;2024-01-10T07:28:03;19.70;;;14.07;;
6207;SDS011;3137;51.550;7.060;2024-01-10T07:30:30;34.43;;;17.27;;
6207;SDS011;3137;51.550;7.060;2024-01-10T07:32:59;33.30;;;15.93;;
6207;SDS011;3137;51.550;7.060;2024-01-10T07:35:26;31.33;;;15.60;;
6207;SDS011;3137;51.550;7.060;2024-01-10T07:37:54;31.67;;;15.30;;
6207;SDS011;3137;51.550;7.060;2024-01-10T07:40:20;29.50;;;15.97;;
6207;SDS011;3137;51.550;7.060;2024-01-10T07:42:47;34.03;;;16.17;;
6207;SDS011;3137;51.550;7.060;2024-01-10T07:45:13;34.53;;;16.63;;
6207;SDS011;3137;51.550;7.060;2024-01-10T07:47:40;26.00;;;15.60;;
6207;SDS011;3137;51.550;7.060;2024-01-10T07:50:10;35.97;;;15.40;;
6207;SDS011;3137;51.550;7.060;2024-01-10T07:52:38;29.57;;;14.77;;
6207;SDS011;3137;51.550;7.060;2024-01-10T07:55:06;35.87;;;15.57;;
6207;SDS011;3137;51.550;7.060;2024-01-10T07:57:34;30.33;;;15.83;;
6207;SDS011;3137;51.550;7.060;2024-01-10T08:00:01;33.37;;;15.60;;
6207;SDS011;3137;51.550;7.060;2024-01-10T08:02:33;31.27;;;16.67;;
6207;SDS011;3137;51.550;7.060;2024-01-10T08:05:02;32.30;;;16.67;;
6207;SDS011;3137;51.550;7.060;2024-01-10T08:07:31;29.97;;;15.80;;
6207;SDS011;3137;51.550;7.060;2024-01-10T08:10:06;31.20;;;15.70;;
6207;SDS011;3137;51.550;7.060;2024-01-10T08:12:38;40.47;;;16.97;;
6207;SDS011;3137;51.550;7.060;2024-01-10T08:15:05;30.83;;;16.17;;
6207;SDS011;3137;51.550;7.060;2024-01-10T08:17:34;35.20;;;16.30;;
6207;SDS011;3137;51.550;7.060;2024-01-10T08:20:07;29.00;;;16.50;;
6207;SDS011;3137;51.550;7.060;2024-01-10T08:22:34;36.43;;;16.83;;
6207;SDS011;3137;51.550;7.060;2024-01-10T08:25:01;30.23;;;16.07;;
6207;SDS011;3137;51.550;7.060;2024-01-10T08:27:28;34.57;;;17.63;;
6207;SDS011;3137;51.550;7.060;2024-01-10T08:29:55;32.20;;;16.90;;
6207;SDS011;3137;51.550;7.060;2024-01-10T08:32:21;34.10;;;16.63;;
6207;SDS011;3137;51.550;7.060;2024-01-10T08:34:48;38.03;;;17.87;;
6207;SDS011;3137;51.550;7.060;2024-01-10T08:37:15;45.20;;;17.30;;
6207;SDS011;3137;51.550;7.060;2024-01-10T08:39:43;35.83;;;17.43;;
6207;SDS011;3137;51.550;7.060;2024-01-10T08:42:10;36.00;;;17.47;;
6207;SDS011;3137;51.550;7.060;2024-01-10T08:44:40;32.90;;;16.77;;
6207;SDS011;3137;51.550;7.060;2024-01-10T08:47:06;42.37;;;17.73;;
6207;SDS011;3137;51.550;7.060;2024-01-10T08:49:33;31.50;;;17.17;;
6207;SDS011;3137;51.550;7.060;2024-01-10T08:51:59;42.90;;;18.53;;
6207;SDS011;3137;51.550;7.060;2024-01-10T08:54:26;32.83;;;17.73;;
6207;SDS011;3137;51.550;7.060;2024-01-10T08:56:53;34.30;;;16.60;;
6207;SDS011;3137;51.550;7.060;2024-01-10T08:59:19;33.30;;;16.90;;
6207;SDS011;3137;51.550;7.060;2024-01-10T09:01:45;33.90;;;17.23;;
6207;SDS011;3137;51.550;7.060;2024-01-10T09:04:12;42.50;;;17.43;;
6207;SDS011;3137;51.550;7.060;2024-01-10T09:06:39;30.70;;;16.73;;
6207;SDS011;3137;51.550;7.060;2024-01-10T09:09:05;34.70;;;17.00;;
6207;SDS011;3137;51.550;7.060;2024-01-10T09:11:32;35.40;;;15.87;;
6207;SDS011;3137;51.550;7.060;2024-01-10T09:14:05;33.07;;;15.90;;
6207;SDS011;3137;51.550;7.060;2024-01-10T09:16:31;35.77;;;18.50;;
6207;SDS011;3137;51.550;7.060;2024-01-10T09:18:58;38.03;;;19.47;;
6207;SDS011;3137;51.550;7.060;2024-01-10T09:21:25;38.13;;;17.43;;
6207;SDS011;3137;51.550;7.060;2024-01-10T09:23:53;32.90;;;16.90;;
6207;SDS011;3137;51.550;7.060;2024-01-10T09:26:19;37.70;;;16.83;;
6207;SDS011;3137;51.550;7.060;2024-01-10T09:28:46;48.67;;;18.83;;
6207;SDS011;3137;51.550;7.060;2024-01-10T09:31:12;37.07;;;18.60;;
6207;SDS011;3137;51.550;7.060;2024-01-10T09:33:39;36.33;;;17.60;;
6207;SDS011;3137;51.550;7.060;2024-01-10T09:36:06;35.60;;;18.73;;
6207;SDS011;3137;51.550;7.060;2024-01-10T09:38:36;35.90;;;17.70;;
6207;SDS011;3137;51.550;7.060;2024-01-10T09:41:03;32.17;;;17.33;;
6207;SDS011;3137;51.550;7.060;2024-01-10T09:43:31;36.70;;;18.80;;
6207;SDS011;3137;51.550;7.060;2024-01-10T09:46:00;40.73;;;18.77;;
6207;SDS011;3137;51.550;7.060;2024-01-10T09:48:28;43.00;;;19.37;;
6207;SDS011;3137;51.550;7.060;2024-01-10T09:50:56;40.93;;;19.87;;
6207;SDS011;3137;51.550;7.060;2024-01-10T09:53:23;44.17;;;18.83;;
6207;SDS011;3137;51.550;7.060;2024-01-10T09:55:53;38.10;;;18.63;;
6207;SDS011;3137;51.550;7.060;2024-01-10T09:58:23;38.20;;;19.33;;
6207;SDS011;3137;51.550;7.060;2024-01-10T10:00:51;39.90;;;20.47;;
6207;SDS011;3137;51.550;7.060;2024-01-10T10:03:18;39.60;;;19.53;;
6207;SDS011;3137;51.550;7.060;2024-01-10T10:05:45;36.47;;;18.87;;
6207;SDS011;3137;51.550;7.060;2024-01-10T10:08:13;41.83;;;19.53;;
6207;SDS011;3137;51.550;7.060;2024-01-10T10:10:49;40.80;;;19.23;;
6207;SDS011;3137;51.550;7.060;2024-01-10T10:13:25;37.37;;;19.70;;
6207;SDS011;3137;51.550;7.060;2024-01-10T10:16:02;40.67;;;20.80;;
6207;SDS011;3137;51.550;7.060;2024-01-10T10:18:30;58.63;;;19.77;;
6207;SDS011;3137;51.550;7.060;2024-01-10T10:23:36;47.23;;;19.77;;
6207;SDS011;3137;51.550;7.060;2024-01-10T10:26:13;39.37;;;20.00;;
6207;SDS011;3137;51.550;7.060;2024-01-10T10:28:47;42.70;;;20.53;;
6207;SDS011;3137;51.550;7.060;2024-01-10T10:31:14;38.50;;;19.97;;
6207;SDS011;3137;51.550;7.060;2024-01-10T10:33:44;46.70;;;21.87;;
6207;SDS011;3137;51.550;7.060;2024-01-10T10:36:14;44.57;;;20.87;;
6207;SDS011;3137;51.550;7.060;2024-01-10T10:38:41;52.93;;;21.10;;
6207;SDS011;3137;51.550;7.060;2024-01-10T10:41:07;38.43;;;20.47;;
6207;SDS011;3137;51.550;7.060;2024-01-10T10:43:38;45.37;;;20.43;;
6207;SDS011;3137;51.550;7.060;2024-01-10T10:46:06;49.87;;;20.83;;
6207;SDS011;3137;51.550;7.060;2024-01-10T10:48:38;59.10;;;20.57;;
6207;SDS011;3137;51.550;7.060;2024-01-10T10:51:06;41.60;;;20.13;;
6207;SDS011;3137;51.550;7.060;2024-01-10T10:53:35;41.57;;;20.77;;
6207;SDS011;3137;51.550;7.060;2024-01-10T10:56:04;45.63;;;20.07;;
6207;SDS011;3137;51.550;7.060;2024-01-10T10:58:34;38.93;;;19.53;;
6207;SDS011;3137;51.550;7.060;2024-01-10T11:01:09;40.83;;;20.10;;
6207;SDS011;3137;51.550;7.060;2024-01-10T11:03:38;51.17;;;22.17;;
6207;SDS011;3137;51.550;7.060;2024-01-10T11:06:10;49.50;;;22.13;;
6207;SDS011;3137;51.550;7.060;2024-01-10T11:11:32;48.93;;;20.77;;
6207;SDS011;3137;51.550;7.060;2024-01-10T11:14:18;34.77;;;18.67;;
6207;SDS011;3137;51.550;7.060;2024-01-10T11:20:13;42.30;;;19.77;;
6207;SDS011;3137;51.550;7.060;2024-01-10T11:25:30;47.53;;;20.10;;
6207;SDS011;3137;51.550;7.060;2024-01-10T11:27:56;53.00;;;21.57;;
6207;SDS011;3137;51.550;7.060;2024-01-10T11:30:33;52.57;;;21.70;;
6207;SDS011;3137;51.550;7.060;2024-01-10T11:33:02;47.60;;;22.03;;
6207;SDS011;3137;51.550;7.060;2024-01-10T11:35:55;54.87;;;21.87;;
6207;SDS011;3137;51.550;7.060;2024-01-10T11:38:39;47.47;;;20.37;;
6207;SDS011;3137;51.550;7.060;2024-01-10T11:41:09;44.13;;;20.37;;
6207;SDS011;3137;51.550;7.060;2024-01-10T11:43:37;42.90;;;19.17;;
6207;SDS011;3137;51.550;7.060;2024-01-10T11:46:03;44.30;;;20.83;;
6207;SDS011;3137;51.550;7.060;2024-01-10T11:48:32;44.83;;;20.77;;
6207;SDS011;3137;51.550;7.060;2024-01-10T11:50:59;39.57;;;20.47;;
6207;SDS011;3137;51.550;7.060;2024-01-10T11:54:00;48.00;;;20.50;;
6207;SDS011;3137;51.550;7.060;2024-01-10T11:56:19;44.10;;;20.63;;
6207;SDS011;3137;51.550;7.060;2024-01-10T11:59:01;42.80;;;21.33;;
6207;SDS011;3137;51.550;7.060;2024-01-10T12:01:31;44.10;;;19.67;;
6207;SDS011;3137;51.550;7.060;2024-01-10T12:03:58;47.03;;;21.07;;
6207;SDS011;3137;51.550;7.060;2024-01-10T12:06:43;50.00;;;20.60;;
6207;SDS011;3137;51.550;7.060;2024-01-10T12:09:12;42.03;;;19.73;;
6207;SDS011;3137;51.550;7.060;2024-01-10T12:11:39;46.00;;;20.53;;
6207;SDS011;3137;51.550;7.060;2024-01-10T12:14:10;42.27;;;20.83;;
6207;SDS011;3137;51.550;7.060;2024-01-10T12:16:37;42.13;;;21.23;;
6207;SDS011;3137;51.550;7.060;2024-01-10T12:19:04;54.53;;;20.30;;
6207;SDS011;3137;51.550;7.060;2024-01-10T12:21:31;47.10;;;21.40;;
6207;SDS011;3137;51.550;7.060;2024-01-10T12:23:58;44.57;;;19.43;;
6207;SDS011;3137;51.550;7.060;2024-01-10T12:26:24;47.53;;;20.67;;
6207;SDS011;3137;51.550;7.060;2024-01-10T12:28:54;43.70;;;20.50;;
6207;SDS011;3137;51.550;7.060;2024-01-10T12:31:23;41.70;;;20.73;;
6207;SDS011;3137;51.550;7.060;2024-01-10T12:33:51;41.47;;;21.10;;
6207;SDS011;3137;51.550;7.060;2024-01-10T12:36:18;47.37;;;20.37;;
6207;SDS011;3137;51.550;7.060;2024-01-10T12:38:46;64.40;;;21.17;;
6207;SDS011;3137;51.550;7.060;2024-01-10T12:41:14;38.73;;;19.77;;
6207;SDS011;3137;51.550;7.060;2024-01-10T12:43:41;42.57;;;19.40;;
6207;SDS011;3137;51.550;7.060;2024-01-10T12:46:11;43.77;;;20.60;;
6207;SDS011;3137;51.550;7.060;2024-01-10T12:48:38;44.73;;;21.83;;
6207;SDS011;3137;51.550;7.060;2024-01-10T12:51:09;44.50;;;21.10;;
6207;SDS011;3137;51.550;7.060;2024-01-10T12:56:04;45.00;;;20.37;;
6207;SDS011;3137;51.550;7.060;2024-01-10T12:58:33;37.67;;;18.33;;
6207;SDS011;3137;51.550;7.060;2024-01-10T13:01:05;31.53;;;19.23;;
6207;SDS011;3137;51.550;7.060;2024-01-10T13:03:31;39.40;;;19.63;;
6207;SDS011;3137;51.550;7.060;2024-01-10T13:05:58;41.93;;;19.43;;
6207;SDS011;3137;51.550;7.060;2024-01-10T13:08:24;42.57;;;21.13;;
6207;SDS011;3137;51.550;7.060;2024-01-10T13:10:51;41.07;;;20.10;;
6207;SDS011;3137;51.550;7.060;2024-01-10T13:13:18;40.40;;;19.07;;
6207;SDS011;3137;51.550;7.060;2024-01-10T13:15:47;38.43;;;19.27;;
6207;SDS011;3137;51.550;7.060;2024-01-10T13:18:15;43.97;;;19.30;;
6207;SDS011;3137;51.550;7.060;2024-01-10T13:20:42;43.07;;;19.17;;
6207;SDS011;3137;51.550;7.060;2024-01-10T13:23:09;36.30;;;19.40;;
6207;SDS011;3137;51.550;7.060;2024-01-10T13:25:36;48.97;;;20.03;;
6207;SDS011;3137;51.550;7.060;2024-01-10T13:28:03;49.47;;;20.07;;
6207;SDS011;3137;51.550;7.060;2024-01-10T13:30:30;41.63;;;18.90;;
6207;SDS011;3137;51.550;7.060;2024-01-10T13:32:57;35.77;;;19.33;;
6207;SDS011;3137;51.550;7.060;2024-01-10T13:35:26;35.40;;;18.80;;
6207;SDS011;3137;51.550;7.060;2024-01-10T13:37:53;36.73;;;18.93;;
6207;SDS011;3137;51.550;7.060;2024-01-10T13:40:19;37.23;;;18.23;;
6207;SDS011;3137;51.550;7.060;2024-01-10T13:42:50;47.43;;;19.07;;
6207;SDS011;3137;51.550;7.060;2024-01-10T13:45:17;40.70;;;19.97;;
6207;SDS011;3137;51.550;7.060;2024-01-10T13:47:43;41.67;;;18.77;;
6207;SDS011;3137;51.550;7.060;2024-01-10T13:50:10;40.13;;;18.97;;
6207;SDS011;3137;51.550;7.060;2024-01-10T13:52:36;39.47;;;19.03;;
6207;SDS011;3137;51.550;7.060;2024-01-10T13:55:03;40.53;;;18.93;;
6207;SDS011;3137;51.550;7.060;2024-01-10T13:57:31;41.73;;;19.27;;
6207;SDS011;3137;51.550;7.060;2024-01-10T14:00:01;32.27;;;17.00;;
6207;SDS011;3137;51.550;7.060;2024-01-10T14:02:37;40.37;;;18.13;;
6207;SDS011;3137;51.550;7.060;2024-01-10T14:05:04;39.83;;;19.40;;
6207;SDS011;3137;51.550;7.060;2024-01-10T14:07:32;44.03;;;20.90;;
6207;SDS011;3137;51.550;7.060;2024-01-10T14:09:59;47.73;;;20.10;;
6207;SDS011;3137;51.550;7.060;2024-01-10T14:12:27;43.00;;;20.03;;
6207;SDS011;3137;51.550;7.060;2024-01-10T14:14:55;43.17;;;19.07;;
6207;SDS011;3137;51.550;7.060;2024-01-10T14:17:24;44.20;;;20.23;;
6207;SDS011;3137;51.550;7.060;2024-01-10T14:19:51;37.10;;;18.93;;
6207;SDS011;3137;51.550;7.060;2024-01-10T14:22:18;39.30;;;18.93;;
6207;SDS011;3137;51.550;7.060;2024-01-10T14:24:56;41.20;;;19.57;;
6207;SDS011;3137;51.550;7.060;2024-01-10T14:27:24;36.40;;;18.83;;
6207;SDS011;3137;51.550;7.060;2024-01-10T14:29:51;42.40;;;20.33;;
6207;SDS011;3137;51.550;7.060;2024-01-10T14:32:18;39.37;;;18.57;;
6207;SDS011;3137;51.550;7.060;2024-01-10T14:34:45;41.87;;;20.33;;
6207;SDS011;3137;51.550;7.060;2024-01-10T14:37:13;38.97;;;19.27;;
6207;SDS011;3137;51.550;7.060;2024-01-10T14:39:40;39.47;;;20.37;;
6207;SDS011;3137;51.550;7.060;2024-01-10T14:42:06;45.00;;;19.93;;
6207;SDS011;3137;51.550;7.060;2024-01-10T14:44:35;44.17;;;19.43;;
6207;SDS011;3137;51.550;7.060;2024-01-10T14:47:01;39.93;;;19.97;;
6207;SDS011;3137;51.550;7.060;2024-01-10T14:49:37;40.73;;;20.20;;
6207;SDS011;3137;51.550;7.060;2024-01-10T14:52:04;38.17;;;19.03;;
6207;SDS011;3137;51.550;7.060;2024-01-10T14:54:31;48.43;;;20.70;;
6207;SDS011;3137;51.550;7.060;2024-01-10T14:56:57;35.00;;;19.70;;
6207;SDS011;3137;51.550;7.060;2024-01-10T14:59:24;38.33;;;19.03;;
6207;SDS011;3137;51.550;7.060;2024-01-10T15:02:08;38.13;;;19.33;;
6207;SDS011;3137;51.550;7.060;2024-01-10T15:04:38;42.93;;;20.23;;
6207;SDS011;3137;51.550;7.060;2024-01-10T15:07:05;44.00;;;19.37;;